Wytheville, Virginia
Current Conditions -  °F | °C
As of 5:35 AM on Monday 22 Dec 2014 (Local Time) from KMKJ Reporting Station
Haze Haze  
Wind Chill: 30°   Ceiling: 600
Heat Index: 37°   Visibility: 5mi
Dew Point: 34°   Wind: 8mph
Humidity: 90%   Direction: 90°E
Pressure: 30.1"   Gusts: NA
Location:  36.95°N, 81.08°W
Report Text: KMKJ 221035Z AUTO 09007KT 5SM BR OVC006 03/01 A3010 RMK AO2 T00250010
Loading
Personal Weather Stations






























Interactive Weather Map New forecast layout! Learn more

10-Day Weather Forecast

Advertisements
Track Severe Weather on mobile